Patapsco — WDB7783 — position and weather

sailwx.info

Track history (hours):
 
Tides and Currents Weather Stations Pressure Air Temp Water Temp Dewpoint Dewpoint Depression Visibility Wind Speed Wind Dir Waves Ship Positions

Patapsco

Owner: Vane Line Bunkering, Inc., Philadelphia, PA. More information available from US FCC via Universal Licensing System and Coast Guard Vessel Documentation Center.

Last reported at 2017-Oct-19 22:00 UTC. Time now 2017-Oct-19 22:07 UTC.
Position N 39°52' W 075°12'.

Length 33 m; draft 4.5 m.

Type: Towing. MMSI: 366948020.

Date/timePositionNaut miles runAvg speedWind from/ knotsBaromVisibWave heightAir tempDewpointWater temp
2017-Oct-19 22:00N 39°52' W 075°12'1 2.2
2017-Oct-19 21:31N 39°53' W 075°12'1 1.3
2017-Oct-19 21:00N 39°53' W 075°11'1 1.2
2017-Oct-19 20:30N 39°53' W 075°12'1 2.5
2017-Oct-19 20:01N 39°52' W 075°13'1 2.7
2017-Oct-19 19:30N 39°54' W 075°12'1 1.1
2017-Oct-19 19:00N 39°54' W 075°12'0 0.1
2017-Oct-19 18:30N 39°54' W 075°12'0 0.1
2017-Oct-19 18:00N 39°54' W 075°12'1 1.1
2017-Oct-19 17:30N 39°54' W 075°12'0 0.0
2017-Oct-19 17:00N 39°54' W 075°12'1 2.7
2017-Oct-19 16:30N 39°52' W 075°13'0 0.2
2017-Oct-19 16:00N 39°52' W 075°12'1 2.5
2017-Oct-19 15:30N 39°53' W 075°12'0 0.0
2017-Oct-19 15:00N 39°53' W 075°12'0 0.0
2017-Oct-19 14:30N 39°53' W 075°12'0 0.0
2017-Oct-19 14:00N 39°53' W 075°12'0 0.0
2017-Oct-19 13:30N 39°53' W 075°12'0 0.0
2017-Oct-19 13:01N 39°53' W 075°12'0 0.5
2017-Oct-19 12:30N 39°53' W 075°12'2 4.1
2017-Oct-19 12:01N 39°52' W 075°13'0 0.0
2017-Oct-19 11:31N 39°52' W 075°13'0 0.0
2017-Oct-19 11:00N 39°52' W 075°13'0 0.1
2017-Oct-19 10:31N 39°52' W 075°13'2 4.6
2017-Oct-19 10:00N 39°51' W 075°16'4 7.2
2017-Oct-19 09:30N 39°51' W 075°21'3 7.0
2017-Oct-19 09:00N 39°49' W 075°25'4 7.2
2017-Oct-19 08:30N 39°46' W 075°28'4 7.1
2017-Oct-19 08:00N 39°43' W 075°30'0 0.7
2017-Oct-19 07:31N 39°43' W 075°31'0 0.0
2017-Oct-19 07:00N 39°43' W 075°31'0 0.5
2017-Oct-19 06:30N 39°43' W 075°31'0 0.0
2017-Oct-19 06:00N 39°43' W 075°31'0 0.0
2017-Oct-19 05:30N 39°43' W 075°31'0 0.0
2017-Oct-19 05:00N 39°43' W 075°31'0 0.0
2017-Oct-19 04:30N 39°43' W 075°31'0 0.0
2017-Oct-19 04:00N 39°43' W 075°31'0 0.0
2017-Oct-19 03:30N 39°43' W 075°31'0 0.0
2017-Oct-19 03:00N 39°43' W 075°31'0 0.0
2017-Oct-19 02:30N 39°43' W 075°31'0 0.0
2017-Oct-19 02:00N 39°43' W 075°31'0 0.0
2017-Oct-19 01:30N 39°43' W 075°31'0 0.0
2017-Oct-19 01:00N 39°43' W 075°31'0 0.0
2017-Oct-19 00:30N 39°43' W 075°31'0 0.0
2017-Oct-19 00:00N 39°43' W 075°31'0 0.0
2017-Oct-18 23:30N 39°43' W 075°31'0 0.0
2017-Oct-18 23:00N 39°43' W 075°31'0 0.0
2017-Oct-18 22:30N 39°43' W 075°31'0 0.0
2017-Oct-18 22:00N 39°43' W 075°31'0 0.5
2017-Oct-18 21:30N 39°43' W 075°31'1 1.7
2017-Oct-18 21:01N 39°44' W 075°30'5 9.2
2017-Oct-18 20:31N 39°47' W 075°27'5 9.2
2017-Oct-18 20:01N 39°50' W 075°22'4 8.9
2017-Oct-18 19:30N 39°51' W 075°16'4 8.2
2017-Oct-18 19:00N 39°53' W 075°12'1 1.4
2017-Oct-18 18:31N 39°54' W 075°12'0 0.0
2017-Oct-18 18:01N 39°54' W 075°12'1 1.2
2017-Oct-18 17:30N 39°54' W 075°12'0 0.0
2017-Oct-18 17:00N 39°54' W 075°12'0 0.0
2017-Oct-18 16:30N 39°54' W 075°12'0 0.0
2017-Oct-18 16:00N 39°54' W 075°12'1 1.3
2017-Oct-18 15:30N 39°54' W 075°12'1 2.1
2017-Oct-18 15:00N 39°55' W 075°13'1 1.0
2017-Oct-18 14:00N 39°54' W 075°12'0 0.1
2017-Oct-18 13:30N 39°54' W 075°12'1 2.1
2017-Oct-18 13:00N 39°53' W 075°12'4 7.3
2017-Oct-18 12:31N 39°51' W 075°16'0 0.0
2017-Oct-18 12:01N 39°51' W 075°16'2 4.3
2017-Oct-18 11:30N 39°52' W 075°14'4 7.3
2017-Oct-18 11:00N 39°53' W 075°09'1 2.1
2017-Oct-18 10:31N 39°54' W 075°08'0 0.2
2017-Oct-18 10:01N 39°54' W 075°08'0 0.0
2017-Oct-18 09:30N 39°54' W 075°08'2 3.7
2017-Oct-18 09:00N 39°53' W 075°11'2 3.2
2017-Oct-18 08:30N 39°54' W 075°12'0 0.0
2017-Oct-18 08:00N 39°54' W 075°12'0 0.0
2017-Oct-18 07:30N 39°54' W 075°12'0 0.0
2017-Oct-18 07:00N 39°54' W 075°12'0 0.0
2017-Oct-18 06:30N 39°54' W 075°12'0 0.0
2017-Oct-18 06:00N 39°54' W 075°12'0 0.0
2017-Oct-18 05:30N 39°54' W 075°12'0 0.0
2017-Oct-18 05:00N 39°54' W 075°12'0 0.0
2017-Oct-18 04:30N 39°54' W 075°12'0 0.0
2017-Oct-18 04:00N 39°54' W 075°12'0 0.2
2017-Oct-18 03:30N 39°54' W 075°12'0 0.0
2017-Oct-18 03:00N 39°54' W 075°12'0 0.0
2017-Oct-18 02:30N 39°54' W 075°12'0 0.0
2017-Oct-18 02:00N 39°54' W 075°12'0 0.1
2017-Oct-18 01:30N 39°54' W 075°12'0 0.1
2017-Oct-18 01:01N 39°54' W 075°12'2 4.4
2017-Oct-18 00:30N 39°52' W 075°14'0 0.8
2017-Oct-18 00:00N 39°51' W 075°14'1 1.3
2017-Oct-17 23:30N 39°52' W 075°13'0 0.0
2017-Oct-17 23:00N 39°52' W 075°13'0 0.0
2017-Oct-17 22:30N 39°52' W 075°13'1 1.4
2017-Oct-17 22:00N 39°51' W 075°14'3 5.3
2017-Oct-17 21:30N 39°53' W 075°12'1 1.3
2017-Oct-17 21:00N 39°54' W 075°12'0 0.0
2017-Oct-17 20:31N 39°54' W 075°12'0 0.0
2017-Oct-17 20:00N 39°54' W 075°12'0 0.0
2017-Oct-17 19:31N 39°54' W 075°12'0 0.0
2017-Oct-17 19:01N 39°54' W 075°12'0 0.0
2017-Oct-17 18:31N 39°54' W 075°12'0 0.2
2017-Oct-17 18:01N 39°54' W 075°12'0 0.6
2017-Oct-17 17:31N 39°54' W 075°12'3 5.3
2017-Oct-17 17:01N 39°54' W 075°08'1 1.2
2017-Oct-17 16:30N 39°54' W 075°08'1 1.4
2017-Oct-17 16:01N 39°54' W 075°09'0 0.0
2017-Oct-17 15:31N 39°54' W 075°09'0 0.0
2017-Oct-17 15:01N 39°54' W 075°09'0 0.0
2017-Oct-17 14:31N 39°54' W 075°09'0 0.0
2017-Oct-17 14:00N 39°54' W 075°09'2 3.1
2017-Oct-17 13:30N 39°53' W 075°10'1 2.5
2017-Oct-17 13:01N 39°53' W 075°12'2 4.3
2017-Oct-17 12:30N 39°51' W 075°14'0 0.3
2017-Oct-17 12:01N 39°51' W 075°14'3 6.0
2017-Oct-17 11:31N 39°51' W 075°18'4 7.1
2017-Oct-17 11:01N 39°50' W 075°22'4 7.0
2017-Oct-17 10:30N 39°48' W 075°26'3 6.3
2017-Oct-17 10:01N 39°46' W 075°29'3 6.2
2017-Oct-17 09:30N 39°43' W 075°30'3 6.2
2017-Oct-17 09:00N 39°40' W 075°32'3 5.9
2017-Oct-17 08:30N 39°38' W 075°35'3 5.3
2017-Oct-17 08:01N 39°35' W 075°34'3 5.6
2017-Oct-17 07:31N 39°32' W 075°33'3 5.4
2017-Oct-17 07:00N 39°30' W 075°33'3 5.3
2017-Oct-17 06:31N 39°27' W 075°33'3 5.6
2017-Oct-17 06:00N 39°25' W 075°31'3 5.5
2017-Oct-17 05:30N 39°23' W 075°29'3 5.0
2017-Oct-17 05:01N 39°21' W 075°26'0 0.7
2017-Oct-17 04:30N 39°22' W 075°27'0 0.5
2017-Oct-17 04:01N 39°21' W 075°27'2 3.7
2017-Oct-17 03:31N 39°20' W 075°25'3 5.5
2017-Oct-17 03:01N 39°18' W 075°23'3 5.8
2017-Oct-17 02:30N 39°16' W 075°20'3 6.0
2017-Oct-17 02:00N 39°13' W 075°18'3 6.1
2017-Oct-17 01:30N 39°11' W 075°16'3 6.2
2017-Oct-17 01:01N 39°08' W 075°14'3 6.3
2017-Oct-17 00:30N 39°06' W 075°11'3 6.1
2017-Oct-17 00:00N 39°03' W 075°10'3 6.1
2017-Oct-16 23:30N 38°60' W 075°08'3 6.2
2017-Oct-16 23:00N 38°57' W 075°07'53 5.2
2017-Oct-16 12:53N 39°26' W 074°10'2 6.0
2017-Oct-16 12:30N 39°28' W 074°09'3 6.0
2017-Oct-16 11:59N 39°31' W 074°07'3 5.9
2017-Oct-16 11:26N 39°34' W 074°05'3 5.8
2017-Oct-16 10:57N 39°37' W 074°04'3 5.8
2017-Oct-16 10:24N 39°39' W 074°02'2 5.8
2017-Oct-16 09:59N 39°42' W 074°01'3 5.8
2017-Oct-16 09:30N 39°44' W 073°59'3 5.8
2017-Oct-16 09:00N 39°47' W 073°58'4 5.9
2017-Oct-16 08:24N 39°50' W 073°57'40 5.5
2017-Oct-16 01:13N 40°30' W 073°58'2 8.4
2017-Oct-16 00:58N 40°31' W 074°00'3 5.9
2017-Oct-16 00:30N 40°34' W 074°02'1 2.5
2017-Oct-16 00:00N 40°35' W 074°02'3 6.8
2017-Oct-15 23:30N 40°38' W 074°04'3 5.4
2017-Oct-15 23:00N 40°39' W 074°07'4 7.1
2017-Oct-15 22:30N 40°38' W 074°12'2 4.0
2017-Oct-15 22:00N 40°36' W 074°12'0 0.0
2017-Oct-15 21:30N 40°36' W 074°12'0 0.0
2017-Oct-15 21:00N 40°36' W 074°12'0 0.0
2017-Oct-15 20:29N 40°36' W 074°12'1 0.2
2017-Oct-15 16:58N 40°37' W 074°12'3 6.7
2017-Oct-15 16:30N 40°39' W 074°09'1 2.8
2017-Oct-15 15:58N 40°40' W 074°08'1 1.8
2017-Oct-15 15:30N 40°39' W 074°09'2 3.0
2017-Oct-15 15:00N 40°39' W 074°07'1 0.6
2017-Oct-15 14:00N 40°39' W 074°06'3 5.0
2017-Oct-15 13:30N 40°39' W 074°03'2 3.5
2017-Oct-15 12:58N 40°40' W 074°01'0 0.5
2017-Oct-15 12:28N 40°40' W 074°01'0 0.6
2017-Oct-15 12:00N 40°40' W 074°01'1 1.4
2017-Oct-15 11:28N 40°40' W 074°00'0 0.0
2017-Oct-15 10:58N 40°40' W 074°00'0 0.7
2017-Oct-15 10:30N 40°40' W 074°01'1 2.3
2017-Oct-15 10:01N 40°39' W 074°02'4 7.0
2017-Oct-15 09:29N 40°39' W 074°06'0 0.7
2017-Oct-15 08:55N 40°39' W 074°07'2 4.2
2017-Oct-15 08:30N 40°39' W 074°05'4 7.3
2017-Oct-15 08:00N 40°41' W 074°01'1 1.0
2017-Oct-15 07:29N 40°41' W 074°00'1 3.0
2017-Oct-15 07:00N 40°40' W 074°01'1 1.3
2017-Oct-15 06:30N 40°40' W 074°00'0 0.0
2017-Oct-15 06:00N 40°40' W 074°00'0 0.0
2017-Oct-15 05:30N 40°40' W 074°00'0 0.0
2017-Oct-15 04:57N 40°40' W 074°00'0 0.0
2017-Oct-15 04:30N 40°40' W 074°00'0 0.0
2017-Oct-15 04:00N 40°40' W 074°00'3 6.3
2017-Oct-15 03:31N 40°39' W 074°04'2 4.1
2017-Oct-15 03:00N 40°39' W 074°07'1 1.7
2017-Oct-15 02:25N 40°39' W 074°06'0 0.0
2017-Oct-15 02:00N 40°39' W 074°06'4 8.4
2017-Oct-15 01:30N 40°39' W 074°11'2 4.4
2017-Oct-15 00:57N 40°36' W 074°12'0 0.3
2017-Oct-15 00:21N 40°36' W 074°12'1 2.9
2017-Oct-15 00:00N 40°37' W 074°12'3 4.9
2017-Oct-14 23:29N 40°39' W 074°09'3 7.1
2017-Oct-14 23:00N 40°39' W 074°05'4 6.9
2017-Oct-14 22:30N 40°40' W 074°00'0 0.2
2017-Oct-14 22:00N 40°40' W 074°00'0 0.0
2017-Oct-14 21:27N 40°40' W 074°00'0 0.0
2017-Oct-14 20:57N 40°40' W 074°00'0 0.6
2017-Oct-14 20:30N 40°40' W 074°00'0 0.1
2017-Oct-14 19:52N 40°40' W 074°00'0 0.0
2017-Oct-14 19:28N 40°40' W 074°00'0 0.0
2017-Oct-14 18:58N 40°40' W 074°00'1 2.6
2017-Oct-14 18:30N 40°40' W 074°02'1 2.5
2017-Oct-14 18:00N 40°40' W 074°00'0 0.6
2017-Oct-14 17:30N 40°40' W 074°01'3 5.1
2017-Oct-14 17:00N 40°42' W 074°02'4 7.4
2017-Oct-14 16:30N 40°46' W 074°00'0 0.0
2017-Oct-14 16:00N 40°46' W 074°00'0 0.0
2017-Oct-14 15:30N 40°46' W 074°00'0 0.0
2017-Oct-14 15:00N 40°46' W 074°00'0 0.0
2017-Oct-14 14:27N 40°46' W 074°00'0 0.0
2017-Oct-14 14:00N 40°46' W 074°00'0 0.0
2017-Oct-14 13:30N 40°46' W 074°00'0 0.0
2017-Oct-14 13:00N 40°46' W 074°00'0 0.0
2017-Oct-14 12:30N 40°46' W 074°00'0 0.4
2017-Oct-14 11:57N 40°46' W 074°00'1 3.1
2017-Oct-14 11:30N 40°45' W 074°01'4 6.9
2017-Oct-14 11:00N 40°41' W 074°02'3 5.7
2017-Oct-14 10:30N 40°39' W 074°05'0 0.6
2017-Oct-14 09:58N 40°39' W 074°05'0 0.0
2017-Oct-14 09:22N 40°39' W 074°05'3 7.1
2017-Oct-14 09:00N 40°39' W 074°02'1 2.6
2017-Oct-14 08:30N 40°40' W 074°01'3 6.7
2017-Oct-14 08:00N 40°39' W 074°05'3 5.9
2017-Oct-14 07:29N 40°39' W 074°09'2 3.2
2017-Oct-14 07:00N 40°41' W 074°09'0 0.0
2017-Oct-14 06:30N 40°41' W 074°09'0 0.0
2017-Oct-14 05:57N 40°41' W 074°09'1 1.3
2017-Oct-14 05:28N 40°41' W 074°09'0 0.0
2017-Oct-14 04:58N 40°41' W 074°09'0 0.0
2017-Oct-14 04:25N 40°41' W 074°09'0 0.0
2017-Oct-14 03:58N 40°41' W 074°09'0 0.0
2017-Oct-14 03:25N 40°41' W 074°09'0 0.0
2017-Oct-14 02:58N 40°41' W 074°09'0 0.0
2017-Oct-14 02:25N 40°41' W 074°09'0 0.0
2017-Oct-14 01:55N 40°41' W 074°09'0 0.0
2017-Oct-14 01:28N 40°41' W 074°09'0 0.0
2017-Oct-14 00:58N 40°41' W 074°09'0 0.0
2017-Oct-14 00:28N 40°41' W 074°09'0 0.0
2017-Oct-13 23:58N 40°41' W 074°09'0 0.0
2017-Oct-13 23:28N 40°41' W 074°09'0 0.0
2017-Oct-13 22:52N 40°41' W 074°09'0 0.0
2017-Oct-13 22:28N 40°41' W 074°09'0 0.0
2017-Oct-13 21:58N 40°41' W 074°09'1 1.3
2017-Oct-13 21:28N 40°41' W 074°09'0 0.0
2017-Oct-13 20:49N 40°41' W 074°09'0 0.7
2017-Oct-13 20:31N 40°41' W 074°09'2 4.3
2017-Oct-13 20:00N 40°39' W 074°07'2 3.8
2017-Oct-13 19:30N 40°39' W 074°05'0 0.0
2017-Oct-13 18:57N 40°39' W 074°05'1 1.6
2017-Oct-13 18:30N 40°39' W 074°06'2 4.8
2017-Oct-13 17:59N 40°40' W 074°08'0 0.5
2017-Oct-13 17:30N 40°40' W 074°09'2 4.0
2017-Oct-13 16:57N 40°39' W 074°06'1 1.5
2017-Oct-13 16:28N 40°39' W 074°05'0 0.1
2017-Oct-13 15:47N 40°39' W 074°05'0 0.0
2017-Oct-13 15:28N 40°39' W 074°05'3 5.5
2017-Oct-13 15:00N 40°39' W 074°02'2 2.9
2017-Oct-13 14:29N 40°40' W 074°00'0 0.0
2017-Oct-13 13:11N 40°40' W 074°00'0 0.0
2017-Oct-13 12:41N 40°40' W 074°00'0 0.0
2017-Oct-13 12:23N 40°40' W 074°00'0 0.1
2017-Oct-13 11:59N 40°40' W 074°00'0 0.6
2017-Oct-13 11:29N 40°40' W 074°01'0 0.5
2017-Oct-13 10:56N 40°40' W 074°00'0 0.5
2017-Oct-13 10:28N 40°40' W 074°00'0 0.0
2017-Oct-13 09:55N 40°40' W 074°00'0 0.0
2017-Oct-13 09:28N 40°40' W 074°00'0 0.0
2017-Oct-13 08:58N 40°40' W 074°00'0 0.0
2017-Oct-13 08:28N 40°40' W 074°00'1 2.7
2017-Oct-13 08:00N 40°39' W 074°02'2 4.7
2017-Oct-13 07:28N 40°39' W 074°05'0 0.0
2017-Oct-13 06:55N 40°39' W 074°05'1 2.3
2017-Oct-13 06:30N 40°39' W 074°04'1 1.6
2017-Oct-13 05:56N 40°39' W 074°03'0 0.0
2017-Oct-13 05:29N 40°39' W 074°03'0 0.0
2017-Oct-13 04:59N 40°39' W 074°03'0 0.0
2017-Oct-13 04:29N 40°39' W 074°03'0 0.0
2017-Oct-13 03:59N 40°39' W 074°03'0 0.0
2017-Oct-13 03:26N 40°39' W 074°03'0 0.0
2017-Oct-13 02:59N 40°39' W 074°03'0 0.0
2017-Oct-13 02:29N 40°39' W 074°03'0 0.0
2017-Oct-13 01:59N 40°39' W 074°03'0 0.0
2017-Oct-13 01:29N 40°39' W 074°03'0 0.0
2017-Oct-13 00:59N 40°39' W 074°03'0 0.0
2017-Oct-13 00:26N 40°39' W 074°03'0 0.0
2017-Oct-12 23:59N 40°39' W 074°03'0 0.0
2017-Oct-12 23:29N 40°39' W 074°03'0 0.0
2017-Oct-12 23:01N 40°39' W 074°03'0 0.0
2017-Oct-12 22:30N 40°39' W 074°03'0 0.0
2017-Oct-12 22:00N 40°39' W 074°03'0 0.0
2017-Oct-12 21:30N 40°39' W 074°03'0 0.1
2017-Oct-12 21:00N 40°39' W 074°03'3 5.9
2017-Oct-12 20:30N 40°39' W 074°06'2 4.0
2017-Oct-12 20:00N 40°40' W 074°09'0 0.0
2017-Oct-12 19:30N 40°40' W 074°09'1 3.0
2017-Oct-12 19:00N 40°41' W 074°09'0 0.0
2017-Oct-12 18:29N 40°41' W 074°09'0 0.0
2017-Oct-12 18:00N 40°41' W 074°09'0 0.0
2017-Oct-12 17:29N 40°41' W 074°09'0 0.0
2017-Oct-12 17:00N 40°41' W 074°09'0 0.0
2017-Oct-12 16:30N 40°41' W 074°09'0 0.0
2017-Oct-12 16:00N 40°41' W 074°09'0 0.0
2017-Oct-12 15:30N 40°41' W 074°09'0 0.0
2017-Oct-12 14:59N 40°41' W 074°09'0 1.0
2017-Oct-12 14:30N 40°41' W 074°09'1 1.6
2017-Oct-12 14:00N 40°41' W 074°08'1 1.5
2017-Oct-12 13:30N 40°41' W 074°08'2 3.5
2017-Oct-12 12:56N 40°39' W 074°07'2 4.1
2017-Oct-12 12:30N 40°39' W 074°05'0 0.1
2017-Oct-12 12:00N 40°39' W 074°05'0 0.1
2017-Oct-12 11:30N 40°39' W 074°05'0 0.0
2017-Oct-12 11:00N 40°39' W 074°05'0 0.0
2017-Oct-12 10:30N 40°39' W 074°05'0 0.0
2017-Oct-12 10:00N 40°39' W 074°05'0 0.0
2017-Oct-12 09:30N 40°39' W 074°05'0 0.1
2017-Oct-12 09:00N 40°39' W 074°05'1 1.7
2017-Oct-12 08:30N 40°40' W 074°04'0 0.8
2017-Oct-12 07:59N 40°40' W 074°04'2 3.5
2017-Oct-12 07:30N 40°39' W 074°06'0 0.9
2017-Oct-12 07:00N 40°39' W 074°05'2 2.6
2017-Oct-12 06:25N 40°38' W 074°04'0 0.0
2017-Oct-12 05:55N 40°38' W 074°04'0 0.0
2017-Oct-12 05:30N 40°38' W 074°04'0 0.0
2017-Oct-12 04:55N 40°38' W 074°04'0 0.1
2017-Oct-12 04:30N 40°38' W 074°04'0 0.1
2017-Oct-12 04:00N 40°38' W 074°04'0 0.1
2017-Oct-12 03:29N 40°38' W 074°04'0 0.1
2017-Oct-12 02:59N 40°38' W 074°04'0 0.1
2017-Oct-12 02:31N 40°38' W 074°04'0 0.1
2017-Oct-12 02:00N 40°38' W 074°04'0 0.0
2017-Oct-12 01:30N 40°38' W 074°04'0 0.1
2017-Oct-12 01:00N 40°38' W 074°04'0 0.1
2017-Oct-12 00:30N 40°38' W 074°04'2 4.1
2017-Oct-12 00:00N 40°40' W 074°03'0 0.9
2017-Oct-11 23:30N 40°40' W 074°03'0 0.0
2017-Oct-11 23:00N 40°40' W 074°03'0 0.0
2017-Oct-11 22:30N 40°40' W 074°03'0 0.0
2017-Oct-11 22:00N 40°40' W 074°03'1 2.0
2017-Oct-11 21:30N 40°40' W 074°04'0 0.0
2017-Oct-11 21:00N 40°40' W 074°04'0 0.0
2017-Oct-11 20:30N 40°40' W 074°04'0 0.0
2017-Oct-11 20:00N 40°40' W 074°04'0 0.0
2017-Oct-11 19:31N 40°40' W 074°04'0 0.0
2017-Oct-11 19:00N 40°40' W 074°04'0 0.0
2017-Oct-11 18:30N 40°40' W 074°04'1 2.7
2017-Oct-11 18:01N 40°39' W 074°05'1 2.2
2017-Oct-11 17:30N 40°39' W 074°07'1 1.3
2017-Oct-11 17:00N 40°39' W 074°08'3 0.2
2017-Oct-11 00:00N 40°40' W 074°05'1 2.2
2017-Oct-10 23:31N 40°39' W 074°05'0 0.9
2017-Oct-10 23:00N 40°39' W 074°06'0 0.1
2017-Oct-10 22:30N 40°39' W 074°05'4 7.1
2017-Oct-10 22:01N 40°40' W 074°01'1 1.3
2017-Oct-10 21:31N 40°40' W 074°00'0 0.0
2017-Oct-10 21:01N 40°40' W 074°00'0 0.0
2017-Oct-10 20:30N 40°40' W 074°00'0 0.0
2017-Oct-10 20:00N 40°40' W 074°00'0 0.0
2017-Oct-10 19:31N 40°40' W 074°00'0 0.0
2017-Oct-10 19:01N 40°40' W 074°00'0 0.0
2017-Oct-10 18:30N 40°40' W 074°00'0 0.0
2017-Oct-10 18:00N 40°40' W 074°00'0 0.0
2017-Oct-10 17:31N 40°40' W 074°00'0 0.5
2017-Oct-10 17:01N 40°40' W 074°00'0 0.1
2017-Oct-10 16:31N 40°40' W 074°00'0 0.0
2017-Oct-10 16:00N 40°40' W 074°00'0 0.0
2017-Oct-10 15:30N 40°40' W 074°00'0 0.0
2017-Oct-10 15:00N 40°40' W 074°00'3 3.5
2017-Oct-10 14:01N 40°39' W 074°05'2 3.2
2017-Oct-10 13:30N 40°39' W 074°03'2 4.3
2017-Oct-10 13:00N 40°40' W 074°00'0 0.1
2017-Oct-10 12:31N 40°40' W 074°00'0 0.0
2017-Oct-10 12:01N 40°40' W 074°00'0 0.0
2017-Oct-10 11:30N 40°40' W 074°00'0 0.0
2017-Oct-10 11:00N 40°40' W 074°00'0 0.0
2017-Oct-10 10:31N 40°40' W 074°00'0 0.0
2017-Oct-10 10:00N 40°40' W 074°00'0 0.0
2017-Oct-10 09:30N 40°40' W 074°00'0 0.0
2017-Oct-10 09:00N 40°40' W 074°00'1 2.9
2017-Oct-10 08:30N 40°41' W 074°00'1 1.7
2017-Oct-10 08:00N 40°41' W 074°01'4 7.2
2017-Oct-10 07:30N 40°39' W 074°05'3 6.7
2017-Oct-10 07:00N 40°38' W 074°09'1 1.2
2017-Oct-10 06:30N 40°39' W 074°09'1 2.1
2017-Oct-10 06:00N 40°40' W 074°09'0 0.0
2017-Oct-10 05:31N 40°40' W 074°09'1 2.8
2017-Oct-10 05:00N 40°39' W 074°09'3 5.5
2017-Oct-10 04:31N 40°39' W 074°05'0 0.2
2017-Oct-10 04:00N 40°39' W 074°05'0 0.1
2017-Oct-10 03:30N 40°39' W 074°05'0 0.0
2017-Oct-10 03:01N 40°39' W 074°05'1 1.2
2017-Oct-10 02:31N 40°39' W 074°06'0 0.2
2017-Oct-10 02:00N 40°39' W 074°06'0 0.0
2017-Oct-10 01:30N 40°39' W 074°06'0 0.0
2017-Oct-10 01:01N 40°39' W 074°06'0 0.0
2017-Oct-10 00:30N 40°39' W 074°06'0 0.0
2017-Oct-10 00:00N 40°39' W 074°06'0 0.0
2017-Oct-09 23:30N 40°39' W 074°06'1 1.9
2017-Oct-09 23:00N 40°39' W 074°07'0 0.3
2017-Oct-09 22:30N 40°39' W 074°07'  
Track history (hours):
 
Tides and Currents Weather Stations Pressure Air Temp Water Temp Dewpoint Dewpoint Depression Visibility Wind Speed Wind Dir Waves Ship Positions

Patapsco

Owner: Vane Line Bunkering, Inc., Philadelphia, PA. More information available from US FCC via Universal Licensing System and Coast Guard Vessel Documentation Center.

Last reported at 2017-Oct-19 22:00 UTC. Time now 2017-Oct-19 22:07 UTC.
Position N 39°52' W 075°12'.

Length 33 m; draft 4.5 m.

Type: Towing. MMSI: 366948020.

Date/timePositionNaut miles runAvg speedWind from/ knotsBaromVisibWave heightAir tempDewpointWater temp
2017-Oct-19 22:00N 39°52' W 075°12'1 2.2
2017-Oct-19 21:31N 39°53' W 075°12'1 1.3
2017-Oct-19 21:00N 39°53' W 075°11'1 1.2
2017-Oct-19 20:30N 39°53' W 075°12'1 2.5
2017-Oct-19 20:01N 39°52' W 075°13'1 2.7
2017-Oct-19 19:30N 39°54' W 075°12'1 1.1
2017-Oct-19 19:00N 39°54' W 075°12'0 0.1
2017-Oct-19 18:30N 39°54' W 075°12'0 0.1
2017-Oct-19 18:00N 39°54' W 075°12'1 1.1
2017-Oct-19 17:30N 39°54' W 075°12'0 0.0
2017-Oct-19 17:00N 39°54' W 075°12'1 2.7
2017-Oct-19 16:30N 39°52' W 075°13'0 0.2
2017-Oct-19 16:00N 39°52' W 075°12'1 2.5
2017-Oct-19 15:30N 39°53' W 075°12'0 0.0
2017-Oct-19 15:00N 39°53' W 075°12'0 0.0
2017-Oct-19 14:30N 39°53' W 075°12'0 0.0
2017-Oct-19 14:00N 39°53' W 075°12'0 0.0
2017-Oct-19 13:30N 39°53' W 075°12'0 0.0
2017-Oct-19 13:01N 39°53' W 075°12'0 0.5
2017-Oct-19 12:30N 39°53' W 075°12'2 4.1
2017-Oct-19 12:01N 39°52' W 075°13'0 0.0
2017-Oct-19 11:31N 39°52' W 075°13'0 0.0
2017-Oct-19 11:00N 39°52' W 075°13'0 0.1
2017-Oct-19 10:31N 39°52' W 075°13'2 4.6
2017-Oct-19 10:00N 39°51' W 075°16'4 7.2
2017-Oct-19 09:30N 39°51' W 075°21'3 7.0
2017-Oct-19 09:00N 39°49' W 075°25'4 7.2
2017-Oct-19 08:30N 39°46' W 075°28'4 7.1
2017-Oct-19 08:00N 39°43' W 075°30'0 0.7
2017-Oct-19 07:31N 39°43' W 075°31'0 0.0
2017-Oct-19 07:00N 39°43' W 075°31'0 0.5
2017-Oct-19 06:30N 39°43' W 075°31'0 0.0
2017-Oct-19 06:00N 39°43' W 075°31'0 0.0
2017-Oct-19 05:30N 39°43' W 075°31'0 0.0
2017-Oct-19 05:00N 39°43' W 075°31'0 0.0
2017-Oct-19 04:30N 39°43' W 075°31'0 0.0
2017-Oct-19 04:00N 39°43' W 075°31'0 0.0
2017-Oct-19 03:30N 39°43' W 075°31'0 0.0
2017-Oct-19 03:00N 39°43' W 075°31'0 0.0
2017-Oct-19 02:30N 39°43' W 075°31'0 0.0
2017-Oct-19 02:00N 39°43' W 075°31'0 0.0
2017-Oct-19 01:30N 39°43' W 075°31'0 0.0
2017-Oct-19 01:00N 39°43' W 075°31'0 0.0
2017-Oct-19 00:30N 39°43' W 075°31'0 0.0
2017-Oct-19 00:00N 39°43' W 075°31'0 0.0
2017-Oct-18 23:30N 39°43' W 075°31'0 0.0
2017-Oct-18 23:00N 39°43' W 075°31'0 0.0
2017-Oct-18 22:30N 39°43' W 075°31'0 0.0
2017-Oct-18 22:00N 39°43' W 075°31'0 0.5
2017-Oct-18 21:30N 39°43' W 075°31'1 1.7
2017-Oct-18 21:01N 39°44' W 075°30'5 9.2
2017-Oct-18 20:31N 39°47' W 075°27'5 9.2
2017-Oct-18 20:01N 39°50' W 075°22'4 8.9
2017-Oct-18 19:30N 39°51' W 075°16'4 8.2
2017-Oct-18 19:00N 39°53' W 075°12'1 1.4
2017-Oct-18 18:31N 39°54' W 075°12'0 0.0
2017-Oct-18 18:01N 39°54' W 075°12'1 1.2
2017-Oct-18 17:30N 39°54' W 075°12'0 0.0
2017-Oct-18 17:00N 39°54' W 075°12'0 0.0
2017-Oct-18 16:30N 39°54' W 075°12'0 0.0
2017-Oct-18 16:00N 39°54' W 075°12'1 1.3
2017-Oct-18 15:30N 39°54' W 075°12'1 2.1
2017-Oct-18 15:00N 39°55' W 075°13'1 1.0
2017-Oct-18 14:00N 39°54' W 075°12'0 0.1
2017-Oct-18 13:30N 39°54' W 075°12'1 2.1
2017-Oct-18 13:00N 39°53' W 075°12'4 7.3
2017-Oct-18 12:31N 39°51' W 075°16'0 0.0
2017-Oct-18 12:01N 39°51' W 075°16'2 4.3
2017-Oct-18 11:30N 39°52' W 075°14'4 7.3
2017-Oct-18 11:00N 39°53' W 075°09'1 2.1
2017-Oct-18 10:31N 39°54' W 075°08'0 0.2
2017-Oct-18 10:01N 39°54' W 075°08'0 0.0
2017-Oct-18 09:30N 39°54' W 075°08'2 3.7
2017-Oct-18 09:00N 39°53' W 075°11'2 3.2
2017-Oct-18 08:30N 39°54' W 075°12'0 0.0
2017-Oct-18 08:00N 39°54' W 075°12'0 0.0
2017-Oct-18 07:30N 39°54' W 075°12'0 0.0
2017-Oct-18 07:00N 39°54' W 075°12'0 0.0
2017-Oct-18 06:30N 39°54' W 075°12'0 0.0
2017-Oct-18 06:00N 39°54' W 075°12'0 0.0
2017-Oct-18 05:30N 39°54' W 075°12'0 0.0
2017-Oct-18 05:00N 39°54' W 075°12'0 0.0
2017-Oct-18 04:30N 39°54' W 075°12'0 0.0
2017-Oct-18 04:00N 39°54' W 075°12'0 0.2
2017-Oct-18 03:30N 39°54' W 075°12'0 0.0
2017-Oct-18 03:00N 39°54' W 075°12'0 0.0
2017-Oct-18 02:30N 39°54' W 075°12'0 0.0
2017-Oct-18 02:00N 39°54' W 075°12'0 0.1
2017-Oct-18 01:30N 39°54' W 075°12'0 0.1
2017-Oct-18 01:01N 39°54' W 075°12'2 4.4
2017-Oct-18 00:30N 39°52' W 075°14'0 0.8
2017-Oct-18 00:00N 39°51' W 075°14'1 1.3
2017-Oct-17 23:30N 39°52' W 075°13'0 0.0
2017-Oct-17 23:00N 39°52' W 075°13'0 0.0
2017-Oct-17 22:30N 39°52' W 075°13'1 1.4
2017-Oct-17 22:00N 39°51' W 075°14'3 5.3
2017-Oct-17 21:30N 39°53' W 075°12'1 1.3
2017-Oct-17 21:00N 39°54' W 075°12'0 0.0
2017-Oct-17 20:31N 39°54' W 075°12'0 0.0
2017-Oct-17 20:00N 39°54' W 075°12'0 0.0
2017-Oct-17 19:31N 39°54' W 075°12'0 0.0
2017-Oct-17 19:01N 39°54' W 075°12'0 0.0
2017-Oct-17 18:31N 39°54' W 075°12'0 0.2
2017-Oct-17 18:01N 39°54' W 075°12'0 0.6
2017-Oct-17 17:31N 39°54' W 075°12'3 5.3
2017-Oct-17 17:01N 39°54' W 075°08'1 1.2
2017-Oct-17 16:30N 39°54' W 075°08'1 1.4
2017-Oct-17 16:01N 39°54' W 075°09'0 0.0
2017-Oct-17 15:31N 39°54' W 075°09'0 0.0
2017-Oct-17 15:01N 39°54' W 075°09'0 0.0
2017-Oct-17 14:31N 39°54' W 075°09'0 0.0
2017-Oct-17 14:00N 39°54' W 075°09'2 3.1
2017-Oct-17 13:30N 39°53' W 075°10'1 2.5
2017-Oct-17 13:01N 39°53' W 075°12'2 4.3
2017-Oct-17 12:30N 39°51' W 075°14'0 0.3
2017-Oct-17 12:01N 39°51' W 075°14'3 6.0
2017-Oct-17 11:31N 39°51' W 075°18'4 7.1
2017-Oct-17 11:01N 39°50' W 075°22'4 7.0
2017-Oct-17 10:30N 39°48' W 075°26'3 6.3
2017-Oct-17 10:01N 39°46' W 075°29'3 6.2
2017-Oct-17 09:30N 39°43' W 075°30'3 6.2
2017-Oct-17 09:00N 39°40' W 075°32'3 5.9
2017-Oct-17 08:30N 39°38' W 075°35'3 5.3
2017-Oct-17 08:01N 39°35' W 075°34'3 5.6
2017-Oct-17 07:31N 39°32' W 075°33'3 5.4
2017-Oct-17 07:00N 39°30' W 075°33'3 5.3
2017-Oct-17 06:31N 39°27' W 075°33'3 5.6
2017-Oct-17 06:00N 39°25' W 075°31'3 5.5
2017-Oct-17 05:30N 39°23' W 075°29'3 5.0
2017-Oct-17 05:01N 39°21' W 075°26'0 0.7
2017-Oct-17 04:30N 39°22' W 075°27'0 0.5
2017-Oct-17 04:01N 39°21' W 075°27'2 3.7
2017-Oct-17 03:31N 39°20' W 075°25'3 5.5
2017-Oct-17 03:01N 39°18' W 075°23'3 5.8
2017-Oct-17 02:30N 39°16' W 075°20'3 6.0
2017-Oct-17 02:00N 39°13' W 075°18'3 6.1
2017-Oct-17 01:30N 39°11' W 075°16'3 6.2
2017-Oct-17 01:01N 39°08' W 075°14'3 6.3
2017-Oct-17 00:30N 39°06' W 075°11'3 6.1
2017-Oct-17 00:00N 39°03' W 075°10'3 6.1
2017-Oct-16 23:30N 38°60' W 075°08'3 6.2
2017-Oct-16 23:00N 38°57' W 075°07'53 5.2
2017-Oct-16 12:53N 39°26' W 074°10'2 6.0
2017-Oct-16 12:30N 39°28' W 074°09'3 6.0
2017-Oct-16 11:59N 39°31' W 074°07'3 5.9
2017-Oct-16 11:26N 39°34' W 074°05'3 5.8
2017-Oct-16 10:57N 39°37' W 074°04'3 5.8
2017-Oct-16 10:24N 39°39' W 074°02'2 5.8
2017-Oct-16 09:59N 39°42' W 074°01'3 5.8
2017-Oct-16 09:30N 39°44' W 073°59'3 5.8
2017-Oct-16 09:00N 39°47' W 073°58'4 5.9
2017-Oct-16 08:24N 39°50' W 073°57'40 5.5
2017-Oct-16 01:13N 40°30' W 073°58'2 8.4
2017-Oct-16 00:58N 40°31' W 074°00'3 5.9
2017-Oct-16 00:30N 40°34' W 074°02'1 2.5
2017-Oct-16 00:00N 40°35' W 074°02'3 6.8
2017-Oct-15 23:30N 40°38' W 074°04'3 5.4
2017-Oct-15 23:00N 40°39' W 074°07'4 7.1
2017-Oct-15 22:30N 40°38' W 074°12'2 4.0
2017-Oct-15 22:00N 40°36' W 074°12'0 0.0
2017-Oct-15 21:30N 40°36' W 074°12'0 0.0
2017-Oct-15 21:00N 40°36' W 074°12'0 0.0
2017-Oct-15 20:29N 40°36' W 074°12'1 0.2
2017-Oct-15 16:58N 40°37' W 074°12'3 6.7
2017-Oct-15 16:30N 40°39' W 074°09'1 2.8
2017-Oct-15 15:58N 40°40' W 074°08'1 1.8
2017-Oct-15 15:30N 40°39' W 074°09'2 3.0
2017-Oct-15 15:00N 40°39' W 074°07'1 0.6
2017-Oct-15 14:00N 40°39' W 074°06'3 5.0
2017-Oct-15 13:30N 40°39' W 074°03'2 3.5
2017-Oct-15 12:58N 40°40' W 074°01'0 0.5
2017-Oct-15 12:28N 40°40' W 074°01'0 0.6
2017-Oct-15 12:00N 40°40' W 074°01'1 1.4
2017-Oct-15 11:28N 40°40' W 074°00'0 0.0
2017-Oct-15 10:58N 40°40' W 074°00'0 0.7
2017-Oct-15 10:30N 40°40' W 074°01'1 2.3
2017-Oct-15 10:01N 40°39' W 074°02'4 7.0
2017-Oct-15 09:29N 40°39' W 074°06'0 0.7
2017-Oct-15 08:55N 40°39' W 074°07'2 4.2
2017-Oct-15 08:30N 40°39' W 074°05'4 7.3
2017-Oct-15 08:00N 40°41' W 074°01'1 1.0
2017-Oct-15 07:29N 40°41' W 074°00'1 3.0
2017-Oct-15 07:00N 40°40' W 074°01'1 1.3
2017-Oct-15 06:30N 40°40' W 074°00'0 0.0
2017-Oct-15 06:00N 40°40' W 074°00'0 0.0
2017-Oct-15 05:30N 40°40' W 074°00'0 0.0
2017-Oct-15 04:57N 40°40' W 074°00'0 0.0
2017-Oct-15 04:30N 40°40' W 074°00'0 0.0
2017-Oct-15 04:00N 40°40' W 074°00'3 6.3
2017-Oct-15 03:31N 40°39' W 074°04'2 4.1
2017-Oct-15 03:00N 40°39' W 074°07'1 1.7
2017-Oct-15 02:25N 40°39' W 074°06'0 0.0
2017-Oct-15 02:00N 40°39' W 074°06'4 8.4
2017-Oct-15 01:30N 40°39' W 074°11'2 4.4
2017-Oct-15 00:57N 40°36' W 074°12'0 0.3
2017-Oct-15 00:21N 40°36' W 074°12'1 2.9
2017-Oct-15 00:00N 40°37' W 074°12'3 4.9
2017-Oct-14 23:29N 40°39' W 074°09'3 7.1
2017-Oct-14 23:00N 40°39' W 074°05'4 6.9
2017-Oct-14 22:30N 40°40' W 074°00'0 0.2
2017-Oct-14 22:00N 40°40' W 074°00'0 0.0
2017-Oct-14 21:27N 40°40' W 074°00'0 0.0
2017-Oct-14 20:57N 40°40' W 074°00'0 0.6
2017-Oct-14 20:30N 40°40' W 074°00'0 0.1
2017-Oct-14 19:52N 40°40' W 074°00'0 0.0
2017-Oct-14 19:28N 40°40' W 074°00'0 0.0
2017-Oct-14 18:58N 40°40' W 074°00'1 2.6
2017-Oct-14 18:30N 40°40' W 074°02'1 2.5
2017-Oct-14 18:00N 40°40' W 074°00'0 0.6
2017-Oct-14 17:30N 40°40' W 074°01'3 5.1
2017-Oct-14 17:00N 40°42' W 074°02'4 7.4
2017-Oct-14 16:30N 40°46' W 074°00'0 0.0
2017-Oct-14 16:00N 40°46' W 074°00'0 0.0
2017-Oct-14 15:30N 40°46' W 074°00'0 0.0
2017-Oct-14 15:00N 40°46' W 074°00'0 0.0
2017-Oct-14 14:27N 40°46' W 074°00'0 0.0
2017-Oct-14 14:00N 40°46' W 074°00'0 0.0
2017-Oct-14 13:30N 40°46' W 074°00'0 0.0
2017-Oct-14 13:00N 40°46' W 074°00'0 0.0
2017-Oct-14 12:30N 40°46' W 074°00'0 0.4
2017-Oct-14 11:57N 40°46' W 074°00'1 3.1
2017-Oct-14 11:30N 40°45' W 074°01'4 6.9
2017-Oct-14 11:00N 40°41' W 074°02'3 5.7
2017-Oct-14 10:30N 40°39' W 074°05'0 0.6
2017-Oct-14 09:58N 40°39' W 074°05'0 0.0
2017-Oct-14 09:22N 40°39' W 074°05'3 7.1
2017-Oct-14 09:00N 40°39' W 074°02'1 2.6
2017-Oct-14 08:30N 40°40' W 074°01'3 6.7
2017-Oct-14 08:00N 40°39' W 074°05'3 5.9
2017-Oct-14 07:29N 40°39' W 074°09'2 3.2
2017-Oct-14 07:00N 40°41' W 074°09'0 0.0
2017-Oct-14 06:30N 40°41' W 074°09'0 0.0
2017-Oct-14 05:57N 40°41' W 074°09'1 1.3
2017-Oct-14 05:28N 40°41' W 074°09'0 0.0
2017-Oct-14 04:58N 40°41' W 074°09'0 0.0
2017-Oct-14 04:25N 40°41' W 074°09'0 0.0
2017-Oct-14 03:58N 40°41' W 074°09'0 0.0
2017-Oct-14 03:25N 40°41' W 074°09'0 0.0
2017-Oct-14 02:58N 40°41' W 074°09'0 0.0
2017-Oct-14 02:25N 40°41' W 074°09'0 0.0
2017-Oct-14 01:55N 40°41' W 074°09'0 0.0
2017-Oct-14 01:28N 40°41' W 074°09'0 0.0
2017-Oct-14 00:58N 40°41' W 074°09'0 0.0
2017-Oct-14 00:28N 40°41' W 074°09'0 0.0
2017-Oct-13 23:58N 40°41' W 074°09'0 0.0
2017-Oct-13 23:28N 40°41' W 074°09'0 0.0
2017-Oct-13 22:52N 40°41' W 074°09'0 0.0
2017-Oct-13 22:28N 40°41' W 074°09'0 0.0
2017-Oct-13 21:58N 40°41' W 074°09'1 1.3
2017-Oct-13 21:28N 40°41' W 074°09'0 0.0
2017-Oct-13 20:49N 40°41' W 074°09'0 0.7
2017-Oct-13 20:31N 40°41' W 074°09'2 4.3
2017-Oct-13 20:00N 40°39' W 074°07'2 3.8
2017-Oct-13 19:30N 40°39' W 074°05'0 0.0
2017-Oct-13 18:57N 40°39' W 074°05'1 1.6
2017-Oct-13 18:30N 40°39' W 074°06'2 4.8
2017-Oct-13 17:59N 40°40' W 074°08'0 0.5
2017-Oct-13 17:30N 40°40' W 074°09'2 4.0
2017-Oct-13 16:57N 40°39' W 074°06'1 1.5
2017-Oct-13 16:28N 40°39' W 074°05'0 0.1
2017-Oct-13 15:47N 40°39' W 074°05'0 0.0
2017-Oct-13 15:28N 40°39' W 074°05'3 5.5
2017-Oct-13 15:00N 40°39' W 074°02'2 2.9
2017-Oct-13 14:29N 40°40' W 074°00'0 0.0
2017-Oct-13 13:11N 40°40' W 074°00'0 0.0
2017-Oct-13 12:41N 40°40' W 074°00'0 0.0
2017-Oct-13 12:23N 40°40' W 074°00'0 0.1
2017-Oct-13 11:59N 40°40' W 074°00'0 0.6
2017-Oct-13 11:29N 40°40' W 074°01'0 0.5
2017-Oct-13 10:56N 40°40' W 074°00'0 0.5
2017-Oct-13 10:28N 40°40' W 074°00'0 0.0
2017-Oct-13 09:55N 40°40' W 074°00'0 0.0
2017-Oct-13 09:28N 40°40' W 074°00'0 0.0
2017-Oct-13 08:58N 40°40' W 074°00'0 0.0
2017-Oct-13 08:28N 40°40' W 074°00'1 2.7
2017-Oct-13 08:00N 40°39' W 074°02'2 4.7
2017-Oct-13 07:28N 40°39' W 074°05'0 0.0
2017-Oct-13 06:55N 40°39' W 074°05'1 2.3
2017-Oct-13 06:30N 40°39' W 074°04'1 1.6
2017-Oct-13 05:56N 40°39' W 074°03'0 0.0
2017-Oct-13 05:29N 40°39' W 074°03'0 0.0
2017-Oct-13 04:59N 40°39' W 074°03'0 0.0
2017-Oct-13 04:29N 40°39' W 074°03'0 0.0
2017-Oct-13 03:59N 40°39' W 074°03'0 0.0
2017-Oct-13 03:26N 40°39' W 074°03'0 0.0
2017-Oct-13 02:59N 40°39' W 074°03'0 0.0
2017-Oct-13 02:29N 40°39' W 074°03'0 0.0
2017-Oct-13 01:59N 40°39' W 074°03'0 0.0
2017-Oct-13 01:29N 40°39' W 074°03'0 0.0
2017-Oct-13 00:59N 40°39' W 074°03'0 0.0
2017-Oct-13 00:26N 40°39' W 074°03'0 0.0
2017-Oct-12 23:59N 40°39' W 074°03'0 0.0
2017-Oct-12 23:29N 40°39' W 074°03'0 0.0
2017-Oct-12 23:01N 40°39' W 074°03'0 0.0
2017-Oct-12 22:30N 40°39' W 074°03'0 0.0
2017-Oct-12 22:00N 40°39' W 074°03'0 0.0
2017-Oct-12 21:30N 40°39' W 074°03'0 0.1
2017-Oct-12 21:00N 40°39' W 074°03'3 5.9
2017-Oct-12 20:30N 40°39' W 074°06'2 4.0
2017-Oct-12 20:00N 40°40' W 074°09'0 0.0
2017-Oct-12 19:30N 40°40' W 074°09'1 3.0
2017-Oct-12 19:00N 40°41' W 074°09'0 0.0
2017-Oct-12 18:29N 40°41' W 074°09'0 0.0
2017-Oct-12 18:00N 40°41' W 074°09'0 0.0
2017-Oct-12 17:29N 40°41' W 074°09'0 0.0
2017-Oct-12 17:00N 40°41' W 074°09'0 0.0
2017-Oct-12 16:30N 40°41' W 074°09'0 0.0
2017-Oct-12 16:00N 40°41' W 074°09'0 0.0
2017-Oct-12 15:30N 40°41' W 074°09'0 0.0
2017-Oct-12 14:59N 40°41' W 074°09'0 1.0
2017-Oct-12 14:30N 40°41' W 074°09'1 1.6
2017-Oct-12 14:00N 40°41' W 074°08'1 1.5
2017-Oct-12 13:30N 40°41' W 074°08'2 3.5
2017-Oct-12 12:56N 40°39' W 074°07'2 4.1
2017-Oct-12 12:30N 40°39' W 074°05'0 0.1
2017-Oct-12 12:00N 40°39' W 074°05'0 0.1
2017-Oct-12 11:30N 40°39' W 074°05'0 0.0
2017-Oct-12 11:00N 40°39' W 074°05'0 0.0
2017-Oct-12 10:30N 40°39' W 074°05'0 0.0
2017-Oct-12 10:00N 40°39' W 074°05'0 0.0
2017-Oct-12 09:30N 40°39' W 074°05'0 0.1
2017-Oct-12 09:00N 40°39' W 074°05'1 1.7
2017-Oct-12 08:30N 40°40' W 074°04'0 0.8
2017-Oct-12 07:59N 40°40' W 074°04'2 3.5
2017-Oct-12 07:30N 40°39' W 074°06'0 0.9
2017-Oct-12 07:00N 40°39' W 074°05'2 2.6
2017-Oct-12 06:25N 40°38' W 074°04'0 0.0
2017-Oct-12 05:55N 40°38' W 074°04'0 0.0
2017-Oct-12 05:30N 40°38' W 074°04'0 0.0
2017-Oct-12 04:55N 40°38' W 074°04'0 0.1
2017-Oct-12 04:30N 40°38' W 074°04'0 0.1
2017-Oct-12 04:00N 40°38' W 074°04'0 0.1
2017-Oct-12 03:29N 40°38' W 074°04'0 0.1
2017-Oct-12 02:59N 40°38' W 074°04'0 0.1
2017-Oct-12 02:31N 40°38' W 074°04'0 0.1
2017-Oct-12 02:00N 40°38' W 074°04'0 0.0
2017-Oct-12 01:30N 40°38' W 074°04'0 0.1
2017-Oct-12 01:00N 40°38' W 074°04'0 0.1
2017-Oct-12 00:30N 40°38' W 074°04'2 4.1
2017-Oct-12 00:00N 40°40' W 074°03'0 0.9
2017-Oct-11 23:30N 40°40' W 074°03'0 0.0
2017-Oct-11 23:00N 40°40' W 074°03'0 0.0
2017-Oct-11 22:30N 40°40' W 074°03'0 0.0
2017-Oct-11 22:00N 40°40' W 074°03'1 2.0
2017-Oct-11 21:30N 40°40' W 074°04'0 0.0
2017-Oct-11 21:00N 40°40' W 074°04'0 0.0
2017-Oct-11 20:30N 40°40' W 074°04'0 0.0
2017-Oct-11 20:00N 40°40' W 074°04'0 0.0
2017-Oct-11 19:31N 40°40' W 074°04'0 0.0
2017-Oct-11 19:00N 40°40' W 074°04'0 0.0
2017-Oct-11 18:30N 40°40' W 074°04'1 2.7
2017-Oct-11 18:01N 40°39' W 074°05'1 2.2
2017-Oct-11 17:30N 40°39' W 074°07'1 1.3
2017-Oct-11 17:00N 40°39' W 074°08'3 0.2
2017-Oct-11 00:00N 40°40' W 074°05'1 2.2
2017-Oct-10 23:31N 40°39' W 074°05'0 0.9
2017-Oct-10 23:00N 40°39' W 074°06'0 0.1
2017-Oct-10 22:30N 40°39' W 074°05'4 7.1
2017-Oct-10 22:01N 40°40' W 074°01'1 1.3
2017-Oct-10 21:31N 40°40' W 074°00'0 0.0
2017-Oct-10 21:01N 40°40' W 074°00'0 0.0
2017-Oct-10 20:30N 40°40' W 074°00'0 0.0
2017-Oct-10 20:00N 40°40' W 074°00'0 0.0
2017-Oct-10 19:31N 40°40' W 074°00'0 0.0
2017-Oct-10 19:01N 40°40' W 074°00'0 0.0
2017-Oct-10 18:30N 40°40' W 074°00'0 0.0
2017-Oct-10 18:00N 40°40' W 074°00'0 0.0
2017-Oct-10 17:31N 40°40' W 074°00'0 0.5
2017-Oct-10 17:01N 40°40' W 074°00'0 0.1
2017-Oct-10 16:31N 40°40' W 074°00'0 0.0
2017-Oct-10 16:00N 40°40' W 074°00'0 0.0
2017-Oct-10 15:30N 40°40' W 074°00'0 0.0
2017-Oct-10 15:00N 40°40' W 074°00'3 3.5
2017-Oct-10 14:01N 40°39' W 074°05'2 3.2
2017-Oct-10 13:30N 40°39' W 074°03'2 4.3
2017-Oct-10 13:00N 40°40' W 074°00'0 0.1
2017-Oct-10 12:31N 40°40' W 074°00'0 0.0
2017-Oct-10 12:01N 40°40' W 074°00'0 0.0
2017-Oct-10 11:30N 40°40' W 074°00'0 0.0
2017-Oct-10 11:00N 40°40' W 074°00'0 0.0
2017-Oct-10 10:31N 40°40' W 074°00'0 0.0
2017-Oct-10 10:00N 40°40' W 074°00'0 0.0
2017-Oct-10 09:30N 40°40' W 074°00'0 0.0
2017-Oct-10 09:00N 40°40' W 074°00'1 2.9
2017-Oct-10 08:30N 40°41' W 074°00'1 1.7
2017-Oct-10 08:00N 40°41' W 074°01'4 7.2
2017-Oct-10 07:30N 40°39' W 074°05'3 6.7
2017-Oct-10 07:00N 40°38' W 074°09'1 1.2
2017-Oct-10 06:30N 40°39' W 074°09'1 2.1
2017-Oct-10 06:00N 40°40' W 074°09'0 0.0
2017-Oct-10 05:31N 40°40' W 074°09'1 2.8
2017-Oct-10 05:00N 40°39' W 074°09'3 5.5
2017-Oct-10 04:31N 40°39' W 074°05'0 0.2
2017-Oct-10 04:00N 40°39' W 074°05'0 0.1
2017-Oct-10 03:30N 40°39' W 074°05'0 0.0
2017-Oct-10 03:01N 40°39' W 074°05'1 1.2
2017-Oct-10 02:31N 40°39' W 074°06'0 0.2
2017-Oct-10 02:00N 40°39' W 074°06'0 0.0
2017-Oct-10 01:30N 40°39' W 074°06'0 0.0
2017-Oct-10 01:01N 40°39' W 074°06'0 0.0
2017-Oct-10 00:30N 40°39' W 074°06'0 0.0
2017-Oct-10 00:00N 40°39' W 074°06'0 0.0
2017-Oct-09 23:30N 40°39' W 074°06'1 1.9
2017-Oct-09 23:00N 40°39' W 074°07'0 0.3
2017-Oct-09 22:30N 40°39' W 074°07'  

Dump ship's entire track history